Time;durP1;ratioP1;P1;durP2;ratioP2;P2;SDS_P1;SDS_P2;PMS_P1;PMS_P2;Temp;Humidity;BMP_temperature;BMP_pressure;BME280_temperature;BME280_humidity;BME280_pressure;Samples;Min_cycle;Max_cycle;Signal;HPM_P1;HPM_P2
2021/10/25 00:01:58;;;;;;;9.40;5.30;;;10.50;63.10;;;;;;5032674;28;20029;-74
2021/10/25 00:04:24;;;;;;;13.48;5.43;;;10.50;63.20;;;;;;5032513;28;20025;-74
2021/10/25 00:06:49;;;;;;;13.18;4.93;;;10.50;62.90;;;;;;5032209;28;20496;-74
2021/10/25 00:09:15;;;;;;;8.63;5.00;;;10.50;63.00;;;;;;5032421;28;20470;-74
2021/10/25 00:11:41;;;;;;;8.68;4.75;;;10.60;63.00;;;;;;5032699;28;20461;-74
2021/10/25 00:14:07;;;;;;;10.38;4.95;;;10.60;62.80;;;;;;5032654;28;20389;-74
2021/10/25 00:16:32;;;;;;;11.85;4.45;;;10.60;62.60;;;;;;5032658;28;20047;-74
2021/10/25 00:18:58;;;;;;;10.63;4.77;;;10.60;62.70;;;;;;5032925;28;20029;-74
2021/10/25 00:21:24;;;;;;;7.70;4.35;;;10.50;63.00;;;;;;5036370;28;20025;-74
2021/10/25 00:23:50;;;;;;;8.13;4.73;;;10.50;63.10;;;;;;5036087;28;20448;-75
2021/10/25 00:26:15;;;;;;;10.82;3.97;;;10.60;69.80;;;;;;5036260;28;20049;-74
2021/10/25 00:28:41;;;;;;;8.63;4.10;;;10.60;70.40;;;;;;5036105;28;20025;-74
2021/10/25 00:31:07;;;;;;;8.73;4.07;;;10.50;64.20;;;;;;5036274;28;20068;-74
2021/10/25 00:33:33;;;;;;;8.25;4.35;;;10.60;67.10;;;;;;5035871;28;20017;-74
2021/10/25 00:35:59;;;;;;;6.68;3.67;;;10.50;68.30;;;;;;5036107;28;20028;-74
2021/10/25 00:38:25;;;;;;;8.17;3.87;;;10.50;66.50;;;;;;5035749;28;20021;-74
2021/10/25 00:40:52;;;;;;;7.97;3.83;;;10.40;65.20;;;;;;5035733;28;20078;-74
2021/10/25 00:43:18;;;;;;;9.73;3.73;;;10.40;65.40;;;;;;5035696;28;20029;-74
2021/10/25 00:45:44;;;;;;;9.70;3.50;;;10.30;65.00;;;;;;5035757;28;20018;-74
2021/10/25 00:48:09;;;;;;;5.38;3.30;;;10.30;64.00;;;;;;5035771;28;20033;-74
2021/10/25 00:50:35;;;;;;;6.97;3.30;;;10.20;64.00;;;;;;5035438;28;20088;-75
2021/10/25 00:53:01;;;;;;;11.55;3.67;;;10.40;66.00;;;;;;5035520;28;20036;-75
2021/10/25 00:55:27;;;;;;;7.47;3.47;;;10.40;68.70;;;;;;5035404;28;20030;-75
2021/10/25 00:57:53;;;;;;;6.40;3.37;;;10.40;66.70;;;;;;5034112;28;20052;-74
2021/10/25 01:00:19;;;;;;;7.90;3.40;;;10.30;64.80;;;;;;5031321;28;20033;-74
2021/10/25 01:02:44;;;;;;;7.70;3.90;;;10.30;66.10;;;;;;5032286;28;20037;-75
2021/10/25 01:05:11;;;;;;;7.60;3.80;;;10.30;73.20;;;;;;5033935;28;20112;-75
2021/10/25 01:07:38;;;;;;;6.78;3.50;;;10.30;70.50;;;;;;5035103;28;20029;-75
2021/10/25 01:10:04;;;;;;;9.47;3.40;;;10.30;67.10;;;;;;5035427;28;20052;-75
2021/10/25 01:12:31;;;;;;;7.77;3.20;;;10.20;69.60;;;;;;5035056;28;20104;-74
2021/10/25 01:14:57;;;;;;;7.27;3.50;;;10.20;69.00;;;;;;5035044;28;20029;-74
2021/10/25 01:17:23;;;;;;;8.33;3.10;;;10.20;66.90;;;;;;5035121;28;20084;-74
2021/10/25 01:19:55;;;;;;;7.27;3.40;;;10.10;66.50;;;;;;5035282;28;20432;-74
2021/10/25 01:22:24;;;;;;;6.55;3.10;;;10.00;65.20;;;;;;5034806;28;20025;-74
2021/10/25 01:24:51;;;;;;;8.23;3.73;;;10.20;69.40;;;;;;5034934;28;20109;-74
2021/10/25 01:27:17;;;;;;;8.50;3.60;;;10.10;69.70;;;;;;5034818;28;20017;-74
2021/10/25 01:29:43;;;;;;;7.47;3.20;;;10.00;67.00;;;;;;5034136;28;20390;-74
2021/10/25 01:32:09;;;;;;;6.10;3.43;;;10.00;67.30;;;;;;5034515;28;20036;-74
2021/10/25 01:34:35;;;;;;;7.03;3.50;;;9.90;65.70;;;;;;5034770;28;20021;-74
2021/10/25 01:37:03;;;;;;;6.03;3.00;;;10.00;69.60;;;;;;5035012;28;20044;-74
2021/10/25 01:39:29;;;;;;;6.20;3.10;;;10.00;72.00;;;;;;5034619;28;20025;-74
2021/10/25 01:41:55;;;;;;;5.60;3.03;;;10.00;70.80;;;;;;5034226;28;20024;-74
2021/10/25 01:44:21;;;;;;;6.17;3.00;;;10.00;71.00;;;;;;5034350;28;20049;-74
2021/10/25 01:46:48;;;;;;;7.27;3.40;;;10.00;70.90;;;;;;5034909;28;20474;-74
2021/10/25 01:49:15;;;;;;;5.13;3.03;;;9.90;73.50;;;;;;5034733;28;20057;-74
2021/10/25 01:51:41;;;;;;;6.07;3.13;;;9.90;74.90;;;;;;5034278;28;20032;-73
2021/10/25 01:54:07;;;;;;;5.33;2.83;;;9.80;81.90;;;;;;5034346;28;20385;-74
2021/10/25 01:56:36;;;;;;;5.17;2.70;;;9.80;77.90;;;;;;5034496;28;20029;-74
2021/10/25 01:59:09;;;;;;;9.37;3.43;;;9.80;78.70;;;;;;5034020;28;20091;-74
2021/10/25 02:01:35;;;;;;;5.30;3.45;;;9.80;76.70;;;;;;5034461;28;20025;-74
2021/10/25 02:04:04;;;;;;;8.23;3.13;;;9.90;77.80;;;;;;5034299;28;20045;-74
2021/10/25 02:06:30;;;;;;;5.50;2.77;;;9.80;78.70;;;;;;5034239;28;20423;-74
2021/10/25 02:08:56;;;;;;;6.33;2.70;;;9.90;79.40;;;;;;5033847;28;20021;-74
2021/10/25 02:11:22;;;;;;;5.90;2.60;;;9.80;79.80;;;;;;5034456;28;20014;-74
2021/10/25 02:13:48;;;;;;;6.53;2.47;;;9.80;80.40;;;;;;5034237;28;20025;-74
2021/10/25 02:16:15;;;;;;;6.10;2.37;;;9.80;81.60;;;;;;5034467;28;20017;-72
2021/10/25 02:18:41;;;;;;;9.27;2.67;;;9.80;82.40;;;;;;5033912;28;20493;-73
2021/10/25 02:21:07;;;;;;;4.57;2.50;;;9.90;81.60;;;;;;5033886;28;20049;-73
2021/10/25 02:23:33;;;;;;;3.90;2.40;;;9.80;72.10;;;;;;5034225;28;20104;-74
2021/10/25 02:25:59;;;;;;;4.63;2.13;;;9.90;74.40;;;;;;5034018;28;20071;-73
2021/10/25 02:28:25;;;;;;;7.67;2.50;;;9.80;75.30;;;;;;5033811;28;20052;-74
2021/10/25 02:30:52;;;;;;;5.93;2.70;;;9.80;67.70;;;;;;5033907;28;20116;-74
2021/10/25 02:33:19;;;;;;;5.17;2.40;;;9.80;64.40;;;;;;5033741;28;20036;-73
2021/10/25 02:35:46;;;;;;;5.63;2.40;;;9.70;64.20;;;;;;5033783;28;20021;-74
2021/10/25 02:38:11;;;;;;;5.93;2.13;;;9.70;63.40;;;;;;5033716;28;20029;-73
2021/10/25 02:40:37;;;;;;;5.50;2.37;;;9.70;63.20;;;;;;5034142;28;20048;-74
2021/10/25 02:43:03;;;;;;;4.40;2.40;;;9.80;63.30;;;;;;5032715;28;20367;-75
2021/10/25 02:45:30;;;;;;;9.33;2.47;;;9.70;63.10;;;;;;5033645;28;20409;-75
2021/10/25 02:47:56;;;;;;;4.03;2.10;;;9.80;62.70;;;;;;5033547;28;20440;-74
2021/10/25 02:50:21;;;;;;;3.73;2.30;;;9.80;62.40;;;;;;5033595;28;20024;-74
2021/10/25 02:52:47;;;;;;;4.73;2.20;;;9.80;62.60;;;;;;5033357;28;20470;-74
2021/10/25 02:55:13;;;;;;;4.60;1.93;;;9.80;62.50;;;;;;5033559;28;20104;-74
2021/10/25 02:57:40;;;;;;;7.17;2.10;;;9.80;62.10;;;;;;5033231;28;20057;-74
2021/10/25 03:00:08;;;;;;;3.83;1.93;;;9.80;62.20;;;;;;5033455;28;20026;-74
2021/10/25 03:02:34;;;;;;;7.20;2.30;;;9.80;62.50;;;;;;5033383;28;20025;-75
2021/10/25 03:05:00;;;;;;;5.13;2.30;;;9.80;62.90;;;;;;5033369;28;20385;-74
2021/10/25 03:07:25;;;;;;;5.87;2.10;;;9.80;63.70;;;;;;5033136;28;20022;-74
2021/10/25 03:09:51;;;;;;;3.77;2.30;;;9.80;63.50;;;;;;5033274;28;20092;-75
2021/10/25 03:12:17;;;;;;;7.63;2.30;;;9.80;63.70;;;;;;5033568;28;20029;-74
2021/10/25 03:14:43;;;;;;;8.13;2.50;;;9.80;64.30;;;;;;5033086;28;20025;-74
2021/10/25 03:17:09;;;;;;;4.53;2.90;;;9.80;65.10;;;;;;5033015;28;20033;-74
2021/10/25 03:19:35;;;;;;;6.17;2.37;;;9.80;70.30;;;;;;5033033;28;20080;-74
2021/10/25 03:22:00;;;;;;;5.17;2.23;;;9.80;77.60;;;;;;5031584;28;20432;-73
2021/10/25 03:24:26;;;;;;;6.63;2.60;;;9.70;83.30;;;;;;5033286;28;20466;-74
2021/10/25 03:26:52;;;;;;;7.30;2.40;;;;;;;;;;5032944;28;20084;-74
2021/10/25 03:29:18;;;;;;;6.93;2.43;;;;;;;;;;5032962;28;20035;-74
2021/10/25 03:31:44;;;;;;;4.60;2.10;;;;;;;;;;5032913;28;20033;-74
2021/10/25 03:34:11;;;;;;;8.40;2.17;;;;;;;;;;5032923;28;20441;-74
2021/10/25 03:36:38;;;;;;;5.87;2.33;;;;;;;;;;5032910;28;20079;-74
2021/10/25 03:39:06;;;;;;;4.13;2.00;;;9.70;94.20;;;;;;5032981;28;20034;-74
2021/10/25 03:41:36;;;;;;;5.40;1.80;;;9.70;89.60;;;;;;5033095;28;20057;-73
2021/10/25 03:44:11;;;;;;;4.73;1.80;;;9.70;84.00;;;;;;5032821;28;20033;-74
2021/10/25 04:29:23;;;;;;;4.90;2.40;;;;;;;;;;5036331;28;20029;-74
2021/10/25 04:31:49;;;;;;;5.03;2.20;;;;;;;;;;5036145;28;20260;-74
2021/10/25 04:34:15;;;;;;;3.83;2.10;;;;;;;;;;5035947;28;20079;-75
2021/10/25 04:36:42;;;;;;;3.80;1.70;;;9.30;92.50;;;;;;5035959;28;20050;-74
2021/10/25 04:39:12;;;;;;;7.33;2.93;;;9.30;90.10;;;;;;5035960;28;20029;-74
2021/10/25 04:41:39;;;;;;;4.40;2.03;;;9.30;87.40;;;;;;5036321;28;20049;-75
2021/10/25 04:44:06;;;;;;;3.70;1.90;;;9.30;82.60;;;;;;5036684;28;20049;-75
2021/10/25 04:46:32;;;;;;;5.57;2.07;;;;;;;;;;5035545;28;20025;-75
2021/10/25 04:48:58;;;;;;;5.70;2.53;;;9.10;92.30;;;;;;5035588;28;20029;-74
2021/10/25 04:51:23;;;;;;;5.00;2.00;;;9.20;87.50;;;;;;5035824;28;20029;-75
2021/10/25 04:53:49;;;;;;;5.07;2.20;;;9.10;89.70;;;;;;5034593;28;20033;-75
2021/10/25 04:56:15;;;;;;;5.13;2.60;;;9.10;88.90;;;;;;5035696;28;20104;-75
2021/10/25 04:58:40;;;;;;;5.83;2.47;;;9.10;87.20;;;;;;5035215;28;20077;-75
2021/10/25 05:01:06;;;;;;;7.77;2.67;;;9.10;87.30;;;;;;5035840;28;20377;-75
2021/10/25 05:03:35;;;;;;;4.20;2.37;;;9.10;86.60;;;;;;5035395;28;20041;-75
2021/10/25 05:06:01;;;;;;;4.97;2.30;;;9.20;86.50;;;;;;5034519;28;20018;-75
2021/10/25 05:08:28;;;;;;;5.33;2.10;;;9.10;86.50;;;;;;5035203;28;20052;-75
2021/10/25 05:10:54;;;;;;;7.43;2.33;;;9.10;84.40;;;;;;5035567;28;20029;-75
2021/10/25 05:13:20;;;;;;;6.23;2.27;;;9.10;87.20;;;;;;5035425;28;20107;-75
2021/10/25 05:15:47;;;;;;;6.53;2.73;;;9.10;74.50;;;;;;5035224;28;20069;-75
2021/10/25 05:18:13;;;;;;;3.57;1.87;;;9.10;75.60;;;;;;5034635;28;20028;-75
2021/10/25 05:20:39;;;;;;;7.33;2.30;;;9.00;73.80;;;;;;5034960;28;20025;-74
2021/10/25 05:23:05;;;;;;;6.60;2.30;;;9.00;74.10;;;;;;5035040;28;20127;-75
2021/10/25 05:25:32;;;;;;;4.33;2.27;;;9.00;72.50;;;;;;5035108;28;20026;-75
2021/10/25 05:27:57;;;;;;;10.40;2.50;;;9.00;74.30;;;;;;5035051;28;20398;-75
2021/10/25 05:30:23;;;;;;;10.93;2.43;;;8.90;72.80;;;;;;5035283;28;20025;-75
2021/10/25 05:32:49;;;;;;;8.27;2.43;;;8.90;72.20;;;;;;5034808;28;20068;-74
2021/10/25 05:35:14;;;;;;;6.93;2.27;;;8.90;70.10;;;;;;5033677;28;20037;-75
2021/10/25 05:37:40;;;;;;;5.67;2.33;;;8.80;72.50;;;;;;5034952;28;20026;-75
2021/10/25 05:40:07;;;;;;;7.27;2.80;;;;;;;;;;5034856;28;20120;-74
2021/10/25 05:42:33;;;;;;;8.37;2.93;;;;;;;;;;5034717;28;20453;-74
2021/10/25 05:44:59;;;;;;;13.80;3.43;;;8.60;94.00;;;;;;5034550;28;20064;-74
2021/10/25 05:47:25;;;;;;;8.50;3.07;;;8.60;71.10;;;;;;5034725;28;20036;-74
2021/10/25 05:49:50;;;;;;;18.70;3.70;;;8.70;70.30;;;;;;5034771;28;20029;-73
2021/10/25 05:52:16;;;;;;;16.20;3.27;;;8.60;68.00;;;;;;5034575;28;20044;-73
2021/10/25 05:54:42;;;;;;;9.97;3.30;;;8.50;66.20;;;;;;5034828;28;20036;-73
2021/10/25 05:57:07;;;;;;;10.60;3.23;;;8.50;66.40;;;;;;5034209;28;20033;-74
2021/10/25 05:59:34;;;;;;;9.53;3.20;;;8.50;67.00;;;;;;5034495;28;20021;-74
2021/10/25 06:02:24;;;;;;;7.47;2.77;;;8.50;66.70;;;;;;5033300;28;20030;-74
2021/10/25 06:04:50;;;;;;;11.73;3.10;;;8.60;66.70;;;;;;5034238;28;20485;-73
2021/10/25 06:07:16;;;;;;;4.40;2.43;;;8.60;66.20;;;;;;5034089;28;20025;-74
2021/10/25 06:09:44;;;;;;;10.17;3.60;;;8.60;66.10;;;;;;5034168;28;20049;-74
2021/10/25 06:12:17;;;;;;;9.83;3.03;;;8.60;65.00;;;;;;5034204;28;20018;-75
2021/10/25 06:14:45;;;;;;;9.23;2.97;;;8.70;65.40;;;;;;5034115;28;20018;-74
2021/10/25 06:17:54;;;;;;;12.73;2.70;;;8.70;65.00;;;;;;5033926;28;20025;-73
2021/10/25 06:19:59;;;;;;;5.57;2.40;;;8.80;64.50;;;;;;5033389;28;20037;-74
2021/10/25 06:22:28;;;;;;;7.37;2.70;;;8.80;64.30;;;;;;5033723;28;20079;-74
2021/10/25 06:24:54;;;;;;;7.53;2.90;;;8.80;63.40;;;;;;5034043;28;20482;-75
2021/10/25 06:27:19;;;;;;;7.47;3.10;;;8.80;63.60;;;;;;5033865;28;20044;-74
2021/10/25 06:29:45;;;;;;;7.37;2.67;;;8.90;64.00;;;;;;5033833;28;20061;-74
2021/10/25 06:32:11;;;;;;;5.10;2.47;;;8.90;63.90;;;;;;5033892;28;20390;-74
2021/10/25 06:34:39;;;;;;;9.63;2.50;;;9.00;64.40;;;;;;5033850;28;20443;-73
2021/10/25 06:37:05;;;;;;;7.57;2.43;;;9.00;64.70;;;;;;5033910;28;20029;-74
2021/10/25 06:39:43;;;;;;;5.23;2.30;;;9.10;64.00;;;;;;5033851;28;20064;-74
2021/10/25 06:42:10;;;;;;;7.00;2.83;;;9.10;63.90;;;;;;5033767;28;20022;-74
2021/10/25 06:47:14;;;;;;;6.30;2.20;;;9.30;62.80;;;;;;5033500;28;20548;-74
2021/10/25 06:49:40;;;;;;;6.30;2.13;;;9.40;64.10;;;;;;5032642;28;20037;-74
2021/10/25 06:52:06;;;;;;;6.63;2.43;;;9.50;64.80;;;;;;5033578;28;20035;-74
2021/10/25 06:54:31;;;;;;;4.93;2.30;;;9.50;61.60;;;;;;5033538;28;20108;-74
2021/10/25 06:56:58;;;;;;;5.87;2.23;;;9.70;85.90;;;;;;5033282;28;20035;-73
2021/10/25 06:59:23;;;;;;;7.07;2.70;;;9.80;67.00;;;;;;5032032;28;20061;-75
2021/10/25 07:01:49;;;;;;;7.53;2.67;;;9.90;64.80;;;;;;5033217;28;20445;-71
2021/10/25 07:04:16;;;;;;;5.43;2.40;;;10.00;65.00;;;;;;5033179;28;20082;-72
2021/10/25 07:06:41;;;;;;;5.03;2.37;;;10.10;66.10;;;;;;5033536;28;20143;-72
2021/10/25 07:09:07;;;;;;;6.87;2.50;;;10.10;61.10;;;;;;5033208;28;20109;-71
2021/10/25 07:11:34;;;;;;;6.47;2.50;;;10.10;60.40;;;;;;5034724;28;20013;-71
2021/10/25 07:14:01;;;;;;;7.60;2.23;;;10.20;60.20;;;;;;5052857;28;20112;-71
2021/10/25 07:16:36;;;;;;;6.90;2.57;;;10.30;59.60;;;;;;5051375;28;20032;-70
2021/10/25 08:03:33;;;;;;;4.13;2.03;;;11.50;56.00;;;;;;5032674;28;20041;-70
2021/10/25 08:08:51;;;;;;;5.63;2.25;;;11.80;57.20;;;;;;5032435;28;20133;-71
2021/10/25 08:11:18;;;;;;;3.63;1.75;;;;;;;;;;5032446;28;20096;-71
2021/10/25 08:13:46;;;;;;;5.55;2.28;;;11.90;76.00;;;;;;5030091;28;20053;-70
2021/10/25 08:21:20;;;;;;;8.82;2.35;;;12.00;53.40;;;;;;5031416;28;20044;-72
2021/10/25 08:23:46;;;;;;;5.80;1.60;;;12.10;53.60;;;;;;5032594;28;20553;-72
2021/10/25 08:26:12;;;;;;;4.63;1.80;;;12.20;53.40;;;;;;5032518;28;20036;-72
2021/10/25 08:28:39;;;;;;;7.00;1.80;;;12.30;53.10;;;;;;5031165;28;20029;-72
2021/10/25 08:31:06;;;;;;;3.42;1.73;;;12.40;59.90;;;;;;5029888;28;20030;-72
2021/10/25 08:41:15;;;;;;;5.72;2.15;;;12.70;64.10;;;;;;5034474;28;20091;-72
2021/10/25 08:43:46;;;;;;;4.95;1.85;;;12.70;60.40;;;;;;5035869;28;20044;-72
2021/10/25 08:46:15;;;;;;;4.82;1.60;;;12.80;54.10;;;;;;5035938;28;20021;-72
2021/10/25 08:48:48;;;;;;;7.22;1.83;;;12.80;60.30;;;;;;5035757;28;20519;-72
2021/10/25 08:51:16;;;;;;;5.85;2.33;;;12.90;70.80;;;;;;5035695;28;20028;-72
2021/10/25 08:53:43;;;;;;;4.85;1.92;;;12.90;56.40;;;;;;5035809;28;20053;-72
2021/10/25 08:56:09;;;;;;;5.65;2.20;;;12.90;51.80;;;;;;5035705;28;20018;-71
2021/10/25 08:58:37;;;;;;;5.53;1.65;;;12.90;51.60;;;;;;5035459;28;20103;-69
2021/10/25 09:01:03;;;;;;;2.63;1.77;;;13.10;56.00;;;;;;5035590;28;20026;-72
2021/10/25 09:03:29;;;;;;;3.55;1.70;;;13.20;65.90;;;;;;5035652;28;20041;-72
2021/10/25 09:06:02;;;;;;;5.97;1.63;;;13.30;70.90;;;;;;5035427;28;20071;-72
2021/10/25 09:08:29;;;;;;;3.42;1.58;;;13.30;56.80;;;;;;5035500;28;20061;-72
2021/10/25 09:10:55;;;;;;;3.65;1.60;;;13.30;48.60;;;;;;5035451;28;20069;-72
2021/10/25 09:13:23;;;;;;;3.13;1.45;;;;;;;;;;5035487;28;20033;-72
2021/10/25 09:15:57;;;;;;;3.55;1.40;;;13.40;47.00;;;;;;5035497;28;20053;-71
2021/10/25 09:18:28;;;;;;;9.95;1.95;;;13.60;52.60;;;;;;5034851;28;20036;-72
2021/10/25 09:20:58;;;;;;;6.80;1.92;;;13.60;48.10;;;;;;5034929;28;20087;-72
2021/10/25 09:23:38;;;;;;;4.10;1.63;;;13.60;45.10;;;;;;5034877;28;20124;-72
2021/10/25 09:26:07;;;;;;;5.47;2.25;;;13.80;71.50;;;;;;5035163;28;20033;-71
2021/10/25 09:28:40;;;;;;;3.80;1.40;;;13.90;53.70;;;;;;5035067;28;20076;-71
2021/10/25 09:31:10;;;;;;;3.63;1.77;;;13.90;45.10;;;;;;5035081;28;20404;-72
2021/10/25 09:33:38;;;;;;;3.92;1.63;;;;;;;;;;5035042;28;20469;-72
2021/10/25 09:36:12;;;;;;;2.78;1.60;;;14.00;44.10;;;;;;5035055;28;20025;-72
2021/10/25 09:41:41;;;;;;;6.40;1.60;;;;;;;;;;5035041;28;20025;-71
2021/10/25 09:49:48;;;;;;;5.30;1.90;;;14.30;49.80;;;;;;5033869;28;20059;-71
2021/10/25 09:52:14;;;;;;;3.80;1.83;;;14.40;45.20;;;;;;5033607;28;20100;-71
2021/10/25 09:54:42;;;;;;;5.68;1.70;;;14.30;42.10;;;;;;5034266;28;20025;-72
2021/10/25 09:57:24;;;;;;;8.55;1.55;;;14.30;43.00;;;;;;5034176;28;20036;-71
2021/10/25 09:59:57;;;;;;;4.35;1.88;;;14.40;44.20;;;;;;5034360;28;20029;-72
2021/10/25 10:02:24;;;;;;;2.97;1.52;;;14.50;44.20;;;;;;5034001;28;20030;-71
2021/10/25 10:04:56;;;;;;;3.95;1.80;;;14.70;65.60;;;;;;5034040;28;20432;-71
2021/10/25 10:07:22;;;;;;;6.57;1.85;;;14.70;43.10;;;;;;5034215;28;20183;-71
2021/10/25 10:09:49;;;;;;;3.13;1.55;;;14.70;43.90;;;;;;5034406;28;20060;-71
2021/10/25 10:12:19;;;;;;;3.15;1.50;;;14.90;58.60;;;;;;5034262;28;20024;-71
2021/10/25 10:14:51;;;;;;;3.92;1.58;;;15.00;45.20;;;;;;5034204;28;20029;-71
2021/10/25 10:17:37;;;;;;;4.78;1.60;;;15.10;57.70;;;;;;5034304;28;20097;-71
2021/10/25 10:20:07;;;;;;;6.22;2.00;;;15.10;52.50;;;;;;5034030;28;20025;-71
2021/10/25 10:22:35;;;;;;;5.80;1.83;;;15.20;57.10;;;;;;5034146;28;20030;-71
2021/10/25 10:25:01;;;;;;;3.15;1.52;;;15.20;53.70;;;;;;5034323;28;20029;-71
2021/10/25 10:27:26;;;;;;;4.65;1.77;;;15.10;42.50;;;;;;5034044;28;20488;-71
2021/10/25 10:29:57;;;;;;;3.47;1.50;;;15.10;41.40;;;;;;5034163;28;20060;-71
2021/10/25 10:32:26;;;;;;;10.18;1.98;;;15.30;56.20;;;;;;5033670;28;20048;-71
2021/10/25 10:34:53;;;;;;;5.05;1.98;;;;;;;;;;5033781;28;20013;-71
2021/10/25 10:37:25;;;;;;;5.38;1.73;;;15.40;55.20;;;;;;5033778;28;20033;-71
2021/10/25 10:39:57;;;;;;;3.72;1.60;;;15.30;40.90;;;;;;5033830;28;20049;-72
2021/10/25 10:42:34;;;;;;;3.30;1.55;;;15.50;53.10;;;;;;5033749;28;20033;-71
2021/10/25 10:45:10;;;;;;;3.92;1.63;;;15.40;41.30;;;;;;5033542;28;20037;-72
2021/10/25 10:47:43;;;;;;;2.78;1.27;;;15.40;40.70;;;;;;5033685;28;20045;-72
2021/10/25 10:50:34;;;;;;;5.22;1.63;;;15.50;40.80;;;;;;5033639;28;20029;-72
2021/10/25 10:53:13;;;;;;;6.40;1.80;;;15.50;41.20;;;;;;5033233;28;20424;-71
2021/10/25 10:55:42;;;;;;;5.90;2.08;;;15.60;40.80;;;;;;5032943;28;20499;-72
2021/10/25 10:58:23;;;;;;;4.78;2.00;;;15.60;40.80;;;;;;5031129;28;20041;-72
2021/10/25 11:00:59;;;;;;;3.78;1.85;;;15.60;39.70;;;;;;5030598;28;20104;-72
2021/10/25 11:03:28;;;;;;;6.95;2.10;;;15.60;40.50;;;;;;5030033;28;20033;-72
2021/10/25 11:05:59;;;;;;;4.47;1.65;;;15.80;52.50;;;;;;5033139;28;20101;-72
2021/10/25 11:08:31;;;;;;;6.18;2.00;;;15.80;50.50;;;;;;5033325;28;20155;-71
2021/10/25 11:11:08;;;;;;;2.72;1.58;;;15.80;49.10;;;;;;5033476;28;20052;-72
2021/10/25 11:13:41;;;;;;;3.90;1.75;;;15.80;45.30;;;;;;5033331;28;20056;-72
2021/10/25 11:16:12;;;;;;;4.82;1.48;;;15.80;44.90;;;;;;5032587;28;20029;-72
2021/10/25 11:18:44;;;;;;;4.80;1.70;;;15.80;42.70;;;;;;5033284;28;20378;-72
2021/10/25 11:21:17;;;;;;;4.50;1.67;;;15.80;43.30;;;;;;5033365;28;20025;-71
2021/10/25 11:23:55;;;;;;;7.47;2.05;;;15.70;42.30;;;;;;5032944;28;20038;-71
2021/10/25 11:26:24;;;;;;;4.65;1.70;;;15.70;46.20;;;;;;5032880;28;20477;-71
2021/10/25 11:29:05;;;;;;;3.85;1.70;;;15.70;46.30;;;;;;5031804;28;20043;-72
2021/10/25 11:31:52;;;;;;;3.72;1.77;;;15.70;44.40;;;;;;5031717;28;20068;-73
2021/10/25 11:34:28;;;;;;;3.13;1.83;;;15.60;43.40;;;;;;5033021;28;20021;-72
2021/10/25 11:36:59;;;;;;;3.33;1.75;;;15.60;51.20;;;;;;5032660;28;20156;-72
2021/10/25 11:39:40;;;;;;;4.10;1.77;;;15.60;49.40;;;;;;5031476;28;20037;-72
2021/10/25 11:42:11;;;;;;;4.50;1.55;;;15.60;50.00;;;;;;5033057;28;20426;-72
2021/10/25 11:44:39;;;;;;;3.47;1.50;;;15.60;50.00;;;;;;5032938;28;20037;-72
2021/10/25 11:47:26;;;;;;;3.25;1.70;;;15.70;51.90;;;;;;5032745;28;20030;-72
2021/10/25 11:50:04;;;;;;;4.88;1.70;;;15.70;47.70;;;;;;5033054;28;20032;-72
2021/10/25 11:52:50;;;;;;;5.75;1.67;;;15.70;49.10;;;;;;5032863;28;20139;-72
2021/10/25 11:55:22;;;;;;;4.47;1.80;;;15.80;53.80;;;;;;5032915;28;20386;-72
2021/10/25 11:57:50;;;;;;;8.82;3.05;;;15.90;52.00;;;;;;5032477;28;20048;-72
2021/10/25 12:00:27;;;;;;;4.60;1.70;;;15.90;50.60;;;;;;5032644;28;20358;-72
2021/10/25 12:03:05;;;;;;;4.25;2.00;;;16.00;49.50;;;;;;5032363;28;20037;-72
2021/10/25 12:05:31;;;;;;;3.25;1.17;;;16.00;46.60;;;;;;5032940;28;20377;-72
2021/10/25 12:07:57;;;;;;;4.15;1.70;;;16.00;46.70;;;;;;5032726;28;20014;-72
2021/10/25 12:10:25;;;;;;;4.32;1.60;;;16.10;47.60;;;;;;5032731;28;20045;-72
2021/10/25 12:13:02;;;;;;;3.20;1.58;;;16.10;46.50;;;;;;5032624;28;20021;-72
2021/10/25 12:15:31;;;;;;;6.13;2.00;;;16.10;46.00;;;;;;5035351;28;20132;-72
2021/10/25 12:18:02;;;;;;;2.90;1.70;;;16.10;42.60;;;;;;5036461;28;20036;-72
2021/10/25 12:20:37;;;;;;;3.75;1.90;;;16.10;42.60;;;;;;5036689;28;20028;-72
2021/10/25 12:23:11;;;;;;;4.35;1.90;;;16.10;44.50;;;;;;5035121;28;20028;-73
2021/10/25 12:25:38;;;;;;;7.53;3.00;;;16.10;42.30;;;;;;5036560;28;20021;-72
2021/10/25 12:28:17;;;;;;;4.18;2.03;;;16.10;42.60;;;;;;5036283;28;20025;-74
2021/10/25 12:30:43;;;;;;;9.00;2.72;;;16.10;43.00;;;;;;5036666;28;20378;-74
2021/10/25 12:33:11;;;;;;;9.18;2.55;;;16.20;42.40;;;;;;5036248;28;20021;-72
2021/10/25 12:35:41;;;;;;;4.55;1.90;;;16.10;41.90;;;;;;5036368;28;20424;-73
2021/10/25 12:38:10;;;;;;;12.48;2.10;;;16.10;42.80;;;;;;5036157;28;20030;-73
2021/10/25 12:40:44;;;;;;;5.38;2.63;;;16.20;42.60;;;;;;5036275;28;20037;-72
2021/10/25 12:43:10;;;;;;;4.30;2.10;;;16.20;42.30;;;;;;5035915;28;20104;-72
2021/10/25 12:45:41;;;;;;;3.17;1.67;;;16.20;42.50;;;;;;5035852;28;20381;-73
2021/10/25 12:48:12;;;;;;;4.80;1.80;;;16.20;41.00;;;;;;5035695;28;20457;-74
2021/10/25 12:50:41;;;;;;;4.30;1.70;;;16.20;40.90;;;;;;5035712;28;20509;-74
2021/10/25 12:53:12;;;;;;;6.28;1.80;;;16.20;41.40;;;;;;5035698;28;20104;-73
2021/10/25 12:55:40;;;;;;;4.37;1.77;;;16.20;41.50;;;;;;5035568;28;20021;-73
2021/10/25 12:58:10;;;;;;;3.95;2.00;;;16.20;41.90;;;;;;5035573;28;20053;-76
2021/10/25 13:00:36;;;;;;;5.13;1.85;;;16.20;42.50;;;;;;5035757;28;20480;-72
2021/10/25 13:03:11;;;;;;;4.22;2.08;;;16.30;44.50;;;;;;5035519;28;20041;-74
2021/10/25 13:05:39;;;;;;;8.90;1.80;;;16.30;45.20;;;;;;5035282;28;20030;-72
2021/10/25 13:08:07;;;;;;;5.13;1.80;;;16.20;45.40;;;;;;5034288;28;20037;-72
2021/10/25 13:10:37;;;;;;;5.07;2.03;;;16.20;44.90;;;;;;5035877;28;20025;-71
2021/10/25 13:13:07;;;;;;;6.18;1.95;;;16.20;45.00;;;;;;5035170;28;20470;-71
2021/10/25 13:15:34;;;;;;;3.63;1.77;;;16.20;45.10;;;;;;5035454;28;20040;-71
2021/10/25 13:18:02;;;;;;;4.65;1.77;;;16.20;44.80;;;;;;5035517;28;20029;-70
2021/10/25 13:20:31;;;;;;;2.97;1.73;;;16.20;43.30;;;;;;5035312;28;20021;-71
2021/10/25 13:22:58;;;;;;;4.55;2.05;;;16.20;42.10;;;;;;5033745;28;20068;-70
2021/10/25 13:25:26;;;;;;;3.92;1.60;;;16.20;40.90;;;;;;5035034;28;20443;-70
2021/10/25 13:27:54;;;;;;;4.85;1.73;;;16.10;41.90;;;;;;5034605;28;20025;-70
2021/10/25 13:30:21;;;;;;;3.88;2.00;;;16.10;42.40;;;;;;5034980;28;20057;-69
2021/10/25 13:32:47;;;;;;;5.47;2.42;;;16.10;42.20;;;;;;5035363;28;20076;-71
2021/10/25 13:35:15;;;;;;;3.03;1.90;;;16.10;42.30;;;;;;5035150;28;20428;-70
2021/10/25 13:37:42;;;;;;;7.25;2.20;;;16.00;42.20;;;;;;5034577;28;20026;-70
2021/10/25 13:40:09;;;;;;;5.35;2.10;;;16.00;42.20;;;;;;5033702;28;20029;-70
2021/10/25 13:42:36;;;;;;;4.93;2.00;;;16.00;42.50;;;;;;5034921;28;20064;-70
2021/10/25 13:45:03;;;;;;;5.35;2.10;;;16.00;42.60;;;;;;5034707;28;20063;-71
2021/10/25 13:47:29;;;;;;;3.63;1.90;;;16.00;43.00;;;;;;5034686;28;20043;-70
2021/10/25 13:49:56;;;;;;;6.28;2.42;;;15.90;42.50;;;;;;5034347;28;20030;-70
2021/10/25 13:52:22;;;;;;;4.38;1.83;;;15.90;42.00;;;;;;5034786;28;20058;-70
2021/10/25 13:54:49;;;;;;;3.80;1.73;;;15.90;41.70;;;;;;5034712;28;20473;-70
2021/10/25 13:57:19;;;;;;;3.60;2.03;;;15.90;41.30;;;;;;5034306;28;20093;-70
2021/10/25 13:59:45;;;;;;;4.50;2.17;;;15.90;41.40;;;;;;5034939;28;20022;-69
2021/10/25 14:02:13;;;;;;;8.40;2.08;;;15.80;41.50;;;;;;5034662;28;20488;-74
2021/10/25 14:04:46;;;;;;;5.07;1.80;;;15.80;41.70;;;;;;5034752;28;20039;-75
2021/10/25 14:07:16;;;;;;;9.85;1.98;;;15.80;41.50;;;;;;5034275;28;20061;-75
2021/10/25 14:09:49;;;;;;;6.65;1.90;;;15.80;41.50;;;;;;5034564;28;20025;-76
2021/10/25 14:12:19;;;;;;;7.22;2.42;;;15.80;41.70;;;;;;5034503;28;20025;-74
2021/10/25 14:14:46;;;;;;;8.02;2.25;;;15.80;41.80;;;;;;5034296;28;20385;-75
2021/10/25 14:17:12;;;;;;;4.70;2.63;;;15.70;42.20;;;;;;5034022;28;20060;-77
2021/10/25 14:19:40;;;;;;;7.43;2.58;;;15.70;42.70;;;;;;5034116;28;20025;-72
2021/10/25 14:22:06;;;;;;;7.55;2.75;;;15.70;42.70;;;;;;5034212;28;20533;-74
2021/10/25 14:24:32;;;;;;;8.13;2.78;;;15.70;42.90;;;;;;5034050;28;20033;-75
2021/10/25 14:26:58;;;;;;;8.10;2.35;;;15.70;47.30;;;;;;5034103;28;20029;-76
2021/10/25 14:29:24;;;;;;;5.22;2.13;;;15.70;46.90;;;;;;5034028;28;20068;-75
2021/10/25 14:31:51;;;;;;;3.17;2.13;;;15.70;46.90;;;;;;5033850;28;20061;-75
2021/10/25 14:34:18;;;;;;;4.75;2.25;;;15.70;46.70;;;;;;5033916;28;20524;-74
2021/10/25 14:36:48;;;;;;;6.43;2.47;;;15.60;45.90;;;;;;5034124;28;20080;-75
2021/10/25 14:39:27;;;;;;;4.50;2.17;;;15.60;46.20;;;;;;5033918;28;20079;-73
2021/10/25 14:42:06;;;;;;;6.25;2.35;;;15.60;46.00;;;;;;5033822;28;20065;-73
2021/10/25 14:55:15;;;;;;;5.97;2.50;;;15.50;50.90;;;;;;5033429;28;20091;-72
2021/10/25 14:57:41;;;;;;;5.03;2.53;;;15.50;46.50;;;;;;5033676;28;20116;-73
2021/10/25 15:00:07;;;;;;;3.55;2.00;;;15.40;49.90;;;;;;5033664;28;20100;-73
2021/10/25 15:02:35;;;;;;;5.03;2.83;;;;;;;;;;5033443;28;20083;-72
2021/10/25 15:05:02;;;;;;;5.10;2.42;;;;;;;;;;5033309;28;20034;-72
2021/10/25 15:07:28;;;;;;;4.60;2.15;;;;;;;;;;5033301;28;20049;-73